Time;durP1;ratioP1;P1;durP2;ratioP2;P2;SDS_P1;SDS_P2;PMS_P1;PMS_P2;Temp;Humidity;BMP_temperature;BMP_pressure;BME280_temperature;BME280_humidity;BME280_pressure;Samples;Min_cycle;Max_cycle;Signal;HPM_P1;HPM_P2
2021/12/12 00:02:22;;;;;;;25.88;16.63;;;15.00;72.30;;;;;;4127178;28;20049;-62
2021/12/12 00:04:47;;;;;;;26.80;16.92;;;15.00;72.00;;;;;;4142199;28;20053;-62
2021/12/12 00:07:13;;;;;;;26.63;17.83;;;15.00;71.90;;;;;;4142291;28;20061;-62
2021/12/12 00:09:41;;;;;;;28.00;18.05;;;15.00;71.70;;;;;;4139612;28;20493;-62
2021/12/12 00:12:08;;;;;;;30.50;18.88;;;15.00;71.50;;;;;;4136648;28;20513;-62
2021/12/12 00:14:33;;;;;;;29.48;18.70;;;15.00;71.50;;;;;;4125618;28;20050;-62
2021/12/12 00:16:58;;;;;;;27.20;17.77;;;15.00;71.60;;;;;;4126060;28;20136;-62
2021/12/12 00:19:21;;;;;;;29.80;17.63;;;15.00;72.60;;;;;;4126159;28;20042;-62
2021/12/12 00:21:48;;;;;;;26.42;18.58;;;15.00;72.00;;;;;;4125950;28;20449;-62
2021/12/12 00:24:12;;;;;;;32.22;18.88;;;15.00;71.90;;;;;;4111163;28;20179;-62
2021/12/12 00:26:34;;;;;;;33.53;18.75;;;15.00;72.10;;;;;;4130879;28;20081;-61
2021/12/12 00:28:57;;;;;;;30.20;18.67;;;14.90;71.90;;;;;;4141823;28;20140;-61
2021/12/12 00:31:21;;;;;;;26.30;18.40;;;14.90;71.80;;;;;;4142072;28;20122;-62
2021/12/12 00:33:47;;;;;;;28.60;17.25;;;14.90;71.90;;;;;;4141832;28;20073;-61
2021/12/12 00:36:11;;;;;;;29.13;18.95;;;14.90;72.20;;;;;;4142006;28;20041;-60
2021/12/12 00:38:36;;;;;;;31.05;18.85;;;14.90;72.60;;;;;;4141979;28;20417;-61
2021/12/12 00:41:03;;;;;;;32.67;18.15;;;15.00;72.20;;;;;;4142296;28;20053;-61
2021/12/12 00:43:29;;;;;;;27.13;19.50;;;15.10;71.80;;;;;;4133053;28;20050;-59
2021/12/12 00:45:54;;;;;;;31.20;19.85;;;15.20;71.50;;;;;;4128273;28;20046;-58
2021/12/12 00:48:16;;;;;;;28.98;20.35;;;15.20;71.00;;;;;;4128557;28;20054;-59
2021/12/12 00:50:42;;;;;;;32.05;19.63;;;15.20;71.00;;;;;;4130181;28;20054;-58
2021/12/12 00:53:07;;;;;;;33.72;20.25;;;15.30;71.00;;;;;;4144815;28;20049;-59
2021/12/12 00:55:30;;;;;;;31.25;20.25;;;15.30;71.10;;;;;;4144904;28;20521;-58
2021/12/12 00:57:54;;;;;;;29.45;19.67;;;15.30;70.90;;;;;;4129722;28;20050;-59
2021/12/12 01:00:17;;;;;;;30.52;20.45;;;15.30;70.60;;;;;;4130676;28;20126;-58
2021/12/12 01:02:39;;;;;;;29.95;19.13;;;15.30;70.50;;;;;;4128690;28;20482;-59
2021/12/12 01:05:05;;;;;;;29.67;19.83;;;15.40;70.70;;;;;;4128578;28;20058;-58
2021/12/12 01:07:33;;;;;;;28.70;19.42;;;15.40;70.60;;;;;;4128456;28;20513;-59
2021/12/12 01:09:59;;;;;;;28.17;18.73;;;15.40;70.20;;;;;;4127943;28;20532;-59
2021/12/12 01:12:29;;;;;;;34.83;19.15;;;15.40;70.20;;;;;;4142903;28;20505;-59
2021/12/12 01:14:57;;;;;;;27.93;18.87;;;15.40;70.20;;;;;;4145060;28;20425;-59
2021/12/12 01:17:24;;;;;;;23.65;17.55;;;15.40;70.10;;;;;;4143766;28;20327;-59
2021/12/12 01:19:51;;;;;;;27.65;18.40;;;15.50;70.00;;;;;;4144606;28;20080;-59
2021/12/12 01:22:19;;;;;;;29.17;20.08;;;15.50;70.00;;;;;;4144380;28;20065;-59
2021/12/12 01:24:45;;;;;;;30.73;18.30;;;15.50;70.00;;;;;;4144835;28;20060;-59
2021/12/12 01:27:10;;;;;;;27.75;17.05;;;15.40;70.00;;;;;;4144537;28;20479;-58
2021/12/12 01:29:32;;;;;;;30.13;18.30;;;15.40;70.10;;;;;;4143479;28;20137;-61
2021/12/12 01:31:56;;;;;;;29.77;19.13;;;15.40;70.30;;;;;;4144193;28;20041;-62
2021/12/12 01:34:24;;;;;;;31.35;18.35;;;15.40;70.40;;;;;;4127382;28;20042;-62
2021/12/12 01:36:57;;;;;;;32.38;19.88;;;15.40;70.20;;;;;;4127990;28;20054;-61
2021/12/12 01:39:24;;;;;;;28.15;17.63;;;15.50;70.10;;;;;;4127778;28;20052;-59
2021/12/12 01:41:51;;;;;;;28.67;17.95;;;15.50;70.00;;;;;;4142028;28;20054;-62
2021/12/12 01:44:18;;;;;;;26.55;17.27;;;15.50;69.80;;;;;;4143967;28;20162;-62
2021/12/12 01:46:47;;;;;;;30.70;18.58;;;15.50;69.80;;;;;;4144144;28;20052;-62
2021/12/12 01:49:13;;;;;;;28.70;17.58;;;15.50;69.80;;;;;;4142925;28;20061;-63
2021/12/12 01:51:38;;;;;;;34.05;18.48;;;15.50;69.70;;;;;;4143985;28;20065;-63
2021/12/12 01:54:04;;;;;;;22.83;16.70;;;15.50;69.70;;;;;;4143981;28;20504;-62
2021/12/12 01:56:30;;;;;;;26.95;18.25;;;15.50;70.10;;;;;;4142596;28;20046;-62
2021/12/12 01:59:06;;;;;;;29.85;17.02;;;15.40;69.90;;;;;;4144333;28;20394;-62
2021/12/12 02:01:32;;;;;;;27.00;16.52;;;15.40;69.90;;;;;;4129070;28;20441;-62
2021/12/12 02:03:59;;;;;;;28.25;17.55;;;15.40;70.10;;;;;;4143940;28;20595;-62
2021/12/12 02:06:23;;;;;;;22.42;16.50;;;15.40;70.10;;;;;;4133659;28;20112;-62
2021/12/12 02:08:47;;;;;;;24.85;16.38;;;15.40;70.10;;;;;;4130813;28;20525;-62
2021/12/12 02:11:11;;;;;;;23.80;16.45;;;15.40;70.10;;;;;;4143664;28;20516;-62
2021/12/12 02:13:38;;;;;;;26.20;16.90;;;15.40;70.20;;;;;;4143745;28;20057;-62
2021/12/12 02:16:02;;;;;;;25.13;15.35;;;15.40;70.20;;;;;;4143614;28;20184;-62
2021/12/12 02:18:29;;;;;;;23.35;15.48;;;15.40;70.30;;;;;;4143928;28;20050;-58
2021/12/12 02:21:07;;;;;;;28.75;16.23;;;15.40;70.20;;;;;;4127267;28;20092;-60
2021/12/12 02:23:41;;;;;;;21.05;14.20;;;15.50;69.90;;;;;;4127875;28;20509;-59
2021/12/12 02:36:50;;;;;;;26.30;15.27;;;15.80;69.30;;;;;;4143836;28;20064;-59
2021/12/12 02:39:17;;;;;;;24.27;14.55;;;15.90;68.50;;;;;;4138801;28;20049;-59
2021/12/12 02:41:40;;;;;;;24.60;15.32;;;15.90;69.20;;;;;;4127476;28;20137;-59
2021/12/12 02:44:05;;;;;;;21.58;15.48;;;15.90;68.30;;;;;;4127377;28;20050;-59
2021/12/12 02:46:32;;;;;;;24.88;14.63;;;15.80;68.00;;;;;;4127209;28;20129;-59
2021/12/12 02:49:04;;;;;;;23.83;14.57;;;15.80;68.10;;;;;;4130057;28;20054;-59
2021/12/12 02:51:26;;;;;;;23.92;14.02;;;15.70;68.10;;;;;;4143024;28;20034;-59
2021/12/12 02:53:54;;;;;;;23.50;14.25;;;15.70;68.30;;;;;;4142341;28;20505;-59
2021/12/12 02:56:21;;;;;;;25.63;13.80;;;15.70;68.40;;;;;;4135646;28;20465;-59
2021/12/12 02:58:44;;;;;;;24.45;14.60;;;15.70;68.20;;;;;;4127585;28;20050;-59
2021/12/12 03:01:12;;;;;;;18.58;14.75;;;15.70;67.90;;;;;;4142904;28;20077;-59
2021/12/12 03:03:38;;;;;;;23.23;14.20;;;15.70;67.80;;;;;;4143080;28;20053;-59
2021/12/12 03:06:00;;;;;;;21.88;14.18;;;15.70;67.90;;;;;;4141683;28;20054;-59
2021/12/12 03:08:23;;;;;;;23.40;13.82;;;15.70;67.80;;;;;;4127238;28;20121;-59
2021/12/12 03:10:48;;;;;;;20.23;13.55;;;15.80;67.70;;;;;;4142797;28;20054;-59
2021/12/12 03:13:12;;;;;;;22.10;13.43;;;15.80;67.40;;;;;;4133800;28;20068;-58
2021/12/12 03:15:39;;;;;;;19.73;14.57;;;15.80;67.30;;;;;;4130233;28;20041;-59
2021/12/12 03:18:04;;;;;;;21.38;13.40;;;15.80;67.20;;;;;;4142860;28;20107;-59
2021/12/12 03:20:31;;;;;;;18.13;12.63;;;15.80;67.30;;;;;;4142962;28;20577;-59
2021/12/12 03:22:57;;;;;;;24.42;13.77;;;15.70;67.30;;;;;;4142307;28;20056;-59
2021/12/12 03:25:19;;;;;;;20.10;11.93;;;15.70;67.50;;;;;;4141772;28;20401;-59
2021/12/12 03:27:41;;;;;;;14.80;11.95;;;15.60;67.80;;;;;;4142591;28;20151;-62
2021/12/12 03:30:06;;;;;;;17.70;12.07;;;15.60;67.80;;;;;;4132852;28;20475;-62
2021/12/12 03:32:28;;;;;;;16.52;11.93;;;15.60;67.80;;;;;;4124880;28;20050;-60
2021/12/12 03:34:54;;;;;;;18.13;11.02;;;15.70;67.70;;;;;;4126190;28;20081;-61
2021/12/12 03:37:19;;;;;;;18.77;12.38;;;15.70;67.50;;;;;;4142295;28;20500;-63
2021/12/12 03:39:44;;;;;;;18.42;11.75;;;15.70;67.30;;;;;;4142463;28;20402;-62
2021/12/12 03:42:11;;;;;;;18.52;10.88;;;15.70;67.30;;;;;;4142380;28;20413;-61
2021/12/12 03:44:38;;;;;;;20.55;11.10;;;15.60;67.30;;;;;;4142692;28;20057;-62
2021/12/12 03:47:08;;;;;;;16.90;10.43;;;15.60;67.50;;;;;;4132199;28;20133;-62
2021/12/12 03:49:32;;;;;;;16.98;10.63;;;15.60;67.60;;;;;;4125361;28;20051;-65
2021/12/12 03:51:55;;;;;;;16.63;10.95;;;15.60;68.00;;;;;;4126197;28;20104;-64
2021/12/12 03:54:18;;;;;;;13.80;10.10;;;15.60;68.10;;;;;;4126061;28;20472;-63
2021/12/12 03:56:41;;;;;;;14.38;9.85;;;15.60;67.90;;;;;;4137023;28;20052;-62
2021/12/12 03:59:04;;;;;;;17.27;10.38;;;15.70;67.80;;;;;;4142135;28;20050;-63
2021/12/12 04:01:30;;;;;;;15.52;10.05;;;15.60;67.50;;;;;;4142510;28;20056;-63
2021/12/12 04:03:57;;;;;;;15.75;10.45;;;15.70;67.40;;;;;;4132125;28;20051;-62
2021/12/12 04:06:24;;;;;;;13.52;10.13;;;15.80;67.40;;;;;;4133506;28;20108;-63
2021/12/12 04:08:50;;;;;;;16.52;9.40;;;15.80;67.00;;;;;;4142078;28;20053;-63
2021/12/12 04:11:15;;;;;;;13.90;8.95;;;15.80;66.90;;;;;;4141653;28;20409;-62
2021/12/12 04:13:39;;;;;;;14.77;9.55;;;15.80;66.80;;;;;;4142150;28;20475;-63
2021/12/12 04:16:01;;;;;;;14.13;8.43;;;15.80;66.80;;;;;;4141864;28;20137;-64
2021/12/12 04:18:25;;;;;;;13.27;9.13;;;15.80;66.90;;;;;;4142151;28;20077;-62
2021/12/12 04:20:49;;;;;;;11.63;8.73;;;15.70;67.10;;;;;;4129103;28;20133;-61
2021/12/12 04:23:18;;;;;;;12.38;7.63;;;15.60;67.30;;;;;;4126011;28;20050;-61
2021/12/12 04:25:40;;;;;;;10.68;7.80;;;15.60;67.50;;;;;;4113107;28;20059;-59
2021/12/12 04:28:02;;;;;;;12.52;7.35;;;15.60;67.70;;;;;;4142359;28;20057;-58
2021/12/12 04:30:24;;;;;;;12.07;7.55;;;15.60;67.90;;;;;;4132107;28;20042;-58
2021/12/12 04:32:47;;;;;;;9.32;6.40;;;15.50;68.00;;;;;;4141368;28;20042;-58
2021/12/12 04:35:12;;;;;;;9.57;6.53;;;15.50;68.40;;;;;;4141798;28;20096;-57
2021/12/12 04:37:36;;;;;;;8.38;5.82;;;15.50;68.40;;;;;;4137039;28;20474;-58
2021/12/12 04:39:59;;;;;;;10.95;6.43;;;15.50;68.30;;;;;;4142290;28;20064;-58
2021/12/12 04:42:24;;;;;;;9.40;5.88;;;15.50;68.30;;;;;;4141906;28;20100;-58
2021/12/12 04:44:48;;;;;;;10.98;6.50;;;15.50;68.20;;;;;;4141347;28;20065;-58
2021/12/12 04:50:03;;;;;;;8.85;5.60;;;15.50;68.00;;;;;;4141412;28;20042;-58
2021/12/12 04:52:37;;;;;;;7.35;5.25;;;15.60;67.90;;;;;;4141809;28;20050;-60
2021/12/12 04:55:05;;;;;;;5.85;4.82;;;15.70;67.60;;;;;;4136355;28;20486;-59
2021/12/12 04:57:32;;;;;;;5.43;4.72;;;15.80;67.20;;;;;;4142053;28;20633;-63
2021/12/12 05:00:01;;;;;;;6.20;4.32;;;15.80;67.10;;;;;;4141731;28;20050;-63
2021/12/12 05:02:28;;;;;;;6.57;4.80;;;15.90;67.00;;;;;;4141841;28;20050;-63
2021/12/12 05:04:56;;;;;;;7.68;4.88;;;15.80;66.90;;;;;;4126783;28;20503;-63
2021/12/12 05:07:21;;;;;;;7.75;4.22;;;15.90;66.80;;;;;;4141830;28;20060;-62
2021/12/12 05:09:50;;;;;;;5.70;4.15;;;15.90;66.70;;;;;;4137753;28;20053;-63
2021/12/12 05:12:21;;;;;;;5.13;4.65;;;15.90;66.60;;;;;;4125474;28;20043;-63
2021/12/12 05:14:56;;;;;;;6.30;3.78;;;15.90;66.70;;;;;;4135570;28;20050;-63
2021/12/12 05:17:22;;;;;;;6.72;4.97;;;15.90;66.90;;;;;;4141593;28;20050;-63
2021/12/12 05:19:52;;;;;;;6.88;4.63;;;15.90;66.90;;;;;;4141990;28;20057;-63
2021/12/12 05:22:23;;;;;;;4.95;4.43;;;15.90;66.70;;;;;;4141737;28;20077;-63
2021/12/12 05:24:51;;;;;;;5.70;4.10;;;15.90;66.60;;;;;;4141372;28;20073;-63
2021/12/12 05:27:18;;;;;;;6.45;4.20;;;15.90;66.60;;;;;;4139592;28;20445;-63
2021/12/12 05:29:46;;;;;;;3.80;3.50;;;15.90;66.40;;;;;;4141566;28;20049;-63
2021/12/12 05:32:10;;;;;;;4.22;3.60;;;15.90;66.50;;;;;;4143087;28;20085;-63
2021/12/12 05:34:37;;;;;;;3.90;3.47;;;15.90;66.70;;;;;;4144637;28;20486;-64
2021/12/12 05:37:01;;;;;;;5.05;3.80;;;15.80;66.70;;;;;;4144179;28;20069;-63
2021/12/12 05:39:23;;;;;;;4.25;3.80;;;15.80;66.80;;;;;;4144259;28;20125;-64
2021/12/12 05:41:47;;;;;;;3.90;3.60;;;15.80;66.90;;;;;;4144307;28;20085;-63
2021/12/12 05:44:12;;;;;;;4.18;3.53;;;15.80;66.90;;;;;;4129215;28;20503;-64
2021/12/12 05:46:34;;;;;;;4.75;4.00;;;15.80;67.10;;;;;;4128274;28;20058;-63
2021/12/12 05:48:59;;;;;;;3.70;3.10;;;15.70;67.10;;;;;;4127979;28;20049;-64
2021/12/12 05:51:22;;;;;;;3.40;3.20;;;15.80;67.20;;;;;;4127975;28;20123;-64
2021/12/12 05:53:45;;;;;;;4.28;3.63;;;15.80;67.20;;;;;;4128185;28;20049;-64
2021/12/12 05:56:08;;;;;;;4.00;3.60;;;15.80;67.10;;;;;;4142947;28;20053;-63
2021/12/12 05:58:31;;;;;;;3.58;3.35;;;15.80;67.00;;;;;;4144019;28;20141;-63
2021/12/12 06:00:57;;;;;;;2.95;2.75;;;15.80;67.10;;;;;;4144156;28;20058;-63
2021/12/12 06:03:22;;;;;;;3.05;2.85;;;15.90;67.00;;;;;;4143631;28;20100;-63
2021/12/12 06:05:44;;;;;;;4.90;3.22;;;15.90;66.70;;;;;;4144035;28;20104;-63
2021/12/12 06:08:07;;;;;;;3.83;3.30;;;16.00;66.40;;;;;;4127624;28;20481;-63
2021/12/12 06:10:31;;;;;;;3.58;3.28;;;16.00;66.30;;;;;;4136815;28;20049;-63
2021/12/12 06:12:54;;;;;;;3.38;3.10;;;16.00;66.20;;;;;;4143400;28;20057;-63
2021/12/12 06:15:19;;;;;;;3.78;3.47;;;16.10;66.20;;;;;;4143784;28;20401;-63
2021/12/12 06:17:42;;;;;;;3.17;2.90;;;16.10;66.00;;;;;;4143828;28;20560;-63
2021/12/12 06:20:08;;;;;;;4.55;3.85;;;16.20;65.80;;;;;;4143729;28;20056;-63
2021/12/12 06:22:31;;;;;;;3.75;2.72;;;16.20;65.80;;;;;;4143666;28;20065;-63
2021/12/12 06:24:54;;;;;;;5.25;3.17;;;16.20;65.80;;;;;;4143655;28;20050;-63
2021/12/12 06:27:18;;;;;;;3.22;2.80;;;16.10;65.70;;;;;;4130408;28;20050;-63
2021/12/12 06:29:41;;;;;;;3.38;3.10;;;16.10;65.80;;;;;;4127253;28;20490;-63
2021/12/12 06:32:05;;;;;;;2.90;2.70;;;16.10;66.00;;;;;;4142166;28;20050;-63
2021/12/12 06:34:29;;;;;;;3.47;3.17;;;16.10;66.10;;;;;;4143433;28;20560;-63
2021/12/12 06:36:52;;;;;;;4.60;3.35;;;16.10;66.00;;;;;;4143635;28;20124;-65
2021/12/12 06:39:14;;;;;;;4.43;3.22;;;16.20;65.80;;;;;;4143666;28;20492;-63
2021/12/12 06:41:37;;;;;;;2.80;2.60;;;16.30;65.60;;;;;;4142977;28;20053;-63
2021/12/12 06:44:02;;;;;;;2.78;2.60;;;16.30;65.30;;;;;;4131463;28;20569;-63
2021/12/12 06:46:25;;;;;;;3.10;2.85;;;16.30;66.20;;;;;;4127016;28;20178;-63
2021/12/12 06:48:48;;;;;;;2.80;2.60;;;16.30;65.30;;;;;;4127029;28;20478;-63
2021/12/12 06:51:13;;;;;;;3.17;2.97;;;16.40;65.10;;;;;;4133196;28;20069;-63
2021/12/12 06:53:38;;;;;;;2.72;2.15;;;16.50;64.90;;;;;;4143320;28;20482;-64
2021/12/12 06:56:02;;;;;;;3.10;2.80;;;16.60;64.50;;;;;;4143455;28;20049;-63
2021/12/12 06:58:28;;;;;;;3.03;2.70;;;16.60;64.30;;;;;;4142696;28;20049;-63
2021/12/12 07:00:54;;;;;;;3.30;3.10;;;16.60;64.00;;;;;;4132233;28;20501;-63
2021/12/12 07:03:18;;;;;;;4.13;2.80;;;16.60;64.00;;;;;;4143139;28;20413;-63
2021/12/12 07:05:41;;;;;;;3.15;2.80;;;16.60;64.10;;;;;;4143114;28;20153;-61
2021/12/12 07:08:05;;;;;;;3.63;3.35;;;16.50;64.40;;;;;;4143013;28;20139;-59
2021/12/12 07:10:29;;;;;;;3.03;2.80;;;16.50;65.10;;;;;;4142958;28;20058;-59
2021/12/12 07:12:55;;;;;;;5.07;2.72;;;16.40;65.50;;;;;;4143108;28;20395;-59
2021/12/12 07:15:17;;;;;;;3.40;2.72;;;16.40;65.70;;;;;;4142199;28;20046;-60
2021/12/12 07:17:40;;;;;;;3.85;3.20;;;16.40;65.70;;;;;;4141169;28;20041;-59
2021/12/12 07:20:04;;;;;;;3.45;3.25;;;16.40;65.60;;;;;;4141425;28;20640;-59
2021/12/12 07:22:27;;;;;;;4.05;2.65;;;16.40;65.50;;;;;;4126677;28;20049;-60
2021/12/12 07:24:50;;;;;;;3.58;2.85;;;16.40;65.50;;;;;;4126699;28;20054;-60
2021/12/12 07:27:15;;;;;;;3.33;3.03;;;16.40;65.60;;;;;;4126813;28;20409;-59
2021/12/12 07:29:37;;;;;;;3.35;3.10;;;16.30;65.70;;;;;;4126622;28;20054;-60
2021/12/12 07:32:00;;;;;;;3.55;2.75;;;16.30;66.00;;;;;;4138113;28;20056;-59
2021/12/12 07:34:23;;;;;;;3.50;3.20;;;16.30;66.30;;;;;;4138078;28;20046;-59
2021/12/12 07:36:48;;;;;;;3.08;2.72;;;16.30;66.30;;;;;;4142573;28;20046;-59
2021/12/12 07:39:15;;;;;;;3.45;2.83;;;16.30;65.80;;;;;;4142609;28;20544;-59
2021/12/12 07:41:40;;;;;;;2.88;2.65;;;16.30;65.30;;;;;;4142729;28;20057;-59
2021/12/12 07:44:07;;;;;;;2.80;2.70;;;16.30;65.00;;;;;;4142772;28;20046;-59
2021/12/12 07:46:36;;;;;;;2.80;2.60;;;16.30;64.70;;;;;;4142718;28;20160;-59
2021/12/12 07:48:59;;;;;;;2.72;2.53;;;16.30;64.40;;;;;;4142210;28;20371;-62
2021/12/12 07:51:24;;;;;;;3.33;2.70;;;16.30;64.10;;;;;;4142668;28;20050;-63
2021/12/12 07:53:49;;;;;;;4.97;2.60;;;16.30;64.20;;;;;;4126244;28;20046;-63
2021/12/12 07:56:12;;;;;;;3.05;2.85;;;16.30;64.70;;;;;;4126438;28;20065;-62
2021/12/12 07:58:37;;;;;;;2.38;2.17;;;16.30;65.00;;;;;;4126298;28;20056;-63
2021/12/12 08:01:01;;;;;;;2.80;2.60;;;16.40;65.40;;;;;;4132424;28;20049;-63
2021/12/12 08:03:26;;;;;;;3.92;2.90;;;16.40;65.40;;;;;;4130873;28;20056;-64
2021/12/12 08:05:48;;;;;;;3.25;3.05;;;16.50;65.20;;;;;;4137918;28;20062;-63
2021/12/12 08:08:13;;;;;;;2.88;2.67;;;16.40;65.10;;;;;;4138194;28;20466;-63
2021/12/12 08:10:37;;;;;;;2.55;2.45;;;16.50;65.30;;;;;;4142183;28;20046;-63
2021/12/12 08:13:00;;;;;;;2.92;2.72;;;16.40;65.30;;;;;;4141663;28;20061;-63
2021/12/12 08:15:26;;;;;;;3.25;2.70;;;16.40;65.30;;;;;;4142367;28;20141;-63
2021/12/12 08:17:49;;;;;;;3.97;3.20;;;16.40;65.40;;;;;;4142215;28;20053;-62
2021/12/12 08:20:13;;;;;;;3.15;2.95;;;16.40;65.50;;;;;;4142227;28;20075;-63
2021/12/12 08:22:36;;;;;;;4.03;2.72;;;16.40;65.80;;;;;;4141402;28;20049;-63
2021/12/12 08:24:59;;;;;;;3.60;3.30;;;16.40;65.90;;;;;;4141968;28;20054;-63
2021/12/12 08:27:22;;;;;;;2.90;2.75;;;16.50;65.60;;;;;;4142715;28;20417;-63
2021/12/12 08:29:44;;;;;;;2.90;2.70;;;16.50;65.30;;;;;;4140992;28;20069;-63
2021/12/12 08:32:11;;;;;;;3.53;2.90;;;16.50;65.00;;;;;;4125925;28;20066;-64
2021/12/12 08:34:48;;;;;;;2.97;2.88;;;16.60;65.00;;;;;;4125335;28;20140;-63
2021/12/12 08:37:11;;;;;;;3.30;3.00;;;16.60;65.10;;;;;;4125758;28;20046;-63
2021/12/12 08:39:34;;;;;;;3.60;2.75;;;16.60;65.00;;;;;;4126617;28;20161;-63
2021/12/12 08:42:00;;;;;;;4.25;3.60;;;16.60;65.00;;;;;;4130566;28;20050;-63
2021/12/12 08:44:23;;;;;;;4.18;3.83;;;16.50;65.90;;;;;;4142105;28;20489;-63
2021/12/12 08:46:47;;;;;;;4.93;3.33;;;16.50;65.30;;;;;;4142684;28;20050;-63
2021/12/12 08:49:12;;;;;;;3.97;3.67;;;16.40;65.60;;;;;;4135573;28;20112;-63
2021/12/12 08:51:37;;;;;;;3.28;3.08;;;16.40;65.80;;;;;;4141455;28;20054;-62
2021/12/12 08:54:12;;;;;;;4.28;3.83;;;16.40;66.00;;;;;;4142352;28;20066;-62
2021/12/12 08:56:43;;;;;;;3.83;3.53;;;16.40;65.90;;;;;;4141671;28;20058;-63
2021/12/12 08:59:07;;;;;;;3.95;3.75;;;16.50;65.80;;;;;;4140047;28;20058;-63
2021/12/12 09:01:29;;;;;;;3.67;3.47;;;16.50;65.60;;;;;;4138738;28;20050;-63
2021/12/12 09:03:55;;;;;;;3.83;3.63;;;16.50;65.70;;;;;;4139912;28;20050;-63
2021/12/12 09:06:23;;;;;;;4.85;4.18;;;16.40;65.70;;;;;;4141440;28;20349;-64
2021/12/12 09:08:51;;;;;;;4.20;3.90;;;16.40;66.00;;;;;;4142626;28;20046;-63
2021/12/12 09:11:18;;;;;;;4.93;4.43;;;16.30;66.20;;;;;;4141867;28;20452;-63
2021/12/12 09:13:47;;;;;;;3.67;3.42;;;16.20;66.40;;;;;;4141811;28;20054;-63
2021/12/12 09:16:16;;;;;;;4.25;3.90;;;16.20;66.90;;;;;;4142021;28;20092;-64
2021/12/12 09:18:42;;;;;;;4.32;3.92;;;16.20;67.10;;;;;;4142574;28;20567;-67
2021/12/12 09:21:10;;;;;;;5.75;4.28;;;16.20;66.90;;;;;;4141399;28;20046;-66
2021/12/12 09:23:40;;;;;;;4.20;3.80;;;16.30;66.80;;;;;;4142011;28;20081;-71
2021/12/12 09:26:06;;;;;;;5.13;4.38;;;16.30;66.60;;;;;;4142531;28;20556;-67
2021/12/12 09:28:33;;;;;;;5.53;5.00;;;16.30;66.50;;;;;;4142786;28;20509;-63
2021/12/12 09:30:56;;;;;;;5.00;4.60;;;16.30;66.50;;;;;;4141646;28;20054;-63
2021/12/12 09:33:21;;;;;;;5.03;4.63;;;16.30;66.70;;;;;;4142746;28;20049;-63
2021/12/12 09:35:49;;;;;;;5.43;4.93;;;16.20;66.80;;;;;;4141502;28;20042;-65
2021/12/12 09:38:18;;;;;;;5.78;5.07;;;16.10;67.10;;;;;;4141355;28;20050;-64
2021/12/12 09:41:05;;;;;;;4.53;4.13;;;16.10;67.70;;;;;;4142215;28;20050;-64
2021/12/12 09:43:44;;;;;;;5.07;4.68;;;16.50;67.20;;;;;;4141428;28;20052;-63
2021/12/12 09:46:19;;;;;;;5.18;4.78;;;17.00;65.50;;;;;;4141000;28;20398;-63
2021/12/12 09:52:14;;;;;;;6.45;5.05;;;18.30;61.10;;;;;;4141676;28;20132;-59
2021/12/12 09:54:41;;;;;;;5.75;5.25;;;19.10;58.70;;;;;;4141581;28;20497;-59
2021/12/12 09:57:12;;;;;;;6.57;5.95;;;19.70;57.80;;;;;;4141474;28;20065;-59
2021/12/12 09:59:54;;;;;;;6.82;6.22;;;20.30;55.70;;;;;;4141170;28;20393;-59
2021/12/12 10:02:27;;;;;;;6.18;5.57;;;20.80;54.50;;;;;;4141147;28;20050;-59
2021/12/12 10:05:13;;;;;;;6.22;5.63;;;21.00;53.80;;;;;;4141727;28;20049;-60
2021/12/12 10:07:50;;;;;;;6.88;6.20;;;21.10;53.50;;;;;;4140872;28;20136;-59
2021/12/12 10:10:16;;;;;;;6.65;5.97;;;21.00;53.60;;;;;;4140394;28;20046;-59
2021/12/12 10:12:47;;;;;;;7.55;6.75;;;20.90;53.90;;;;;;4140696;28;20057;-59
2021/12/12 10:15:16;;;;;;;7.88;7.07;;;20.60;54.40;;;;;;4126847;28;20049;-59
2021/12/12 10:17:42;;;;;;;8.07;7.38;;;20.40;55.10;;;;;;4140578;28;20057;-59
2021/12/12 10:20:09;;;;;;;7.53;6.85;;;20.10;56.60;;;;;;4141264;28;20053;-59
2021/12/12 10:22:40;;;;;;;10.05;7.32;;;19.90;56.40;;;;;;4141387;28;20160;-59
2021/12/12 10:25:06;;;;;;;;;;;19.90;56.80;;;;;;4126260;28;20054;-59
2021/12/12 10:27:35;;;;;;;9.63;8.52;;;19.90;56.90;;;;;;4141346;28;19929;-59
2021/12/12 10:30:10;;;;;;;8.93;7.93;;;19.80;57.00;;;;;;4140611;28;20081;-59
2021/12/12 10:32:35;;;;;;;10.00;8.50;;;19.80;57.20;;;;;;4140830;28;20490;-59
2021/12/12 10:35:02;;;;;;;9.18;8.30;;;19.80;57.20;;;;;;4141229;28;20054;-59
2021/12/12 10:37:26;;;;;;;9.80;8.80;;;19.80;57.30;;;;;;4139789;28;20050;-59
2021/12/12 10:39:54;;;;;;;9.98;8.98;;;19.80;57.30;;;;;;4140883;28;20379;-59
2021/12/12 10:42:19;;;;;;;10.10;8.95;;;19.80;57.30;;;;;;4139864;28;20053;-59
2021/12/12 10:44:47;;;;;;;10.45;8.73;;;19.90;57.20;;;;;;4141156;28;20107;-59
2021/12/12 10:47:15;;;;;;;9.88;8.43;;;19.90;57.10;;;;;;4140323;28;20057;-59
2021/12/12 10:49:44;;;;;;;12.73;8.68;;;19.90;57.00;;;;;;4140394;28;20046;-59
2021/12/12 10:52:10;;;;;;;10.82;9.73;;;20.00;57.00;;;;;;4140228;28;20077;-60
2021/12/12 10:54:40;;;;;;;10.55;9.25;;;20.00;57.10;;;;;;4139732;28;20138;-59
2021/12/12 10:57:06;;;;;;;9.10;8.20;;;20.00;57.10;;;;;;4140484;28;20215;-59
2021/12/12 10:59:31;;;;;;;10.50;8.80;;;20.00;57.00;;;;;;4140769;28;20049;-59
2021/12/12 11:01:56;;;;;;;10.35;8.52;;;20.10;56.90;;;;;;4140959;28;20057;-59
2021/12/12 11:04:23;;;;;;;11.25;9.20;;;20.10;56.80;;;;;;4139772;28;20045;-58
2021/12/12 11:06:53;;;;;;;9.63;8.25;;;20.10;56.80;;;;;;4124490;28;20129;-59
2021/12/12 11:09:21;;;;;;;9.95;8.95;;;20.00;57.00;;;;;;4113784;28;20086;-59
2021/12/12 11:11:46;;;;;;;10.48;9.30;;;19.90;57.30;;;;;;4140267;28;20064;-59
2021/12/12 11:14:17;;;;;;;9.73;7.53;;;19.70;57.70;;;;;;4140358;28;20053;-59
2021/12/12 11:16:45;;;;;;;9.23;8.30;;;19.60;58.20;;;;;;4139584;28;20465;-59
2021/12/12 11:19:13;;;;;;;10.15;9.15;;;19.40;58.70;;;;;;4139745;28;20461;-58
2021/12/12 11:21:43;;;;;;;9.57;8.57;;;19.30;59.00;;;;;;4138492;28;20054;-58
2021/12/12 11:24:11;;;;;;;9.57;8.57;;;19.30;59.20;;;;;;4139724;28;20041;-59
2021/12/12 11:26:40;;;;;;;8.75;7.85;;;19.40;59.30;;;;;;4140235;28;20137;-59
2021/12/12 11:29:08;;;;;;;9.68;8.68;;;19.40;59.30;;;;;;4140243;28;20192;-59
2021/12/12 11:31:35;;;;;;;8.18;7.32;;;19.60;59.30;;;;;;4140554;28;20546;-59
2021/12/12 11:34:00;;;;;;;8.80;7.93;;;19.70;59.00;;;;;;4140138;28;20058;-59
2021/12/12 11:36:27;;;;;;;8.50;7.70;;;19.90;58.70;;;;;;4139173;28;20552;-59
2021/12/12 11:38:54;;;;;;;7.82;7.07;;;20.00;58.40;;;;;;4139633;28;20054;-59
2021/12/12 11:41:20;;;;;;;8.15;7.32;;;20.10;58.20;;;;;;4139889;28;20515;-59
2021/12/12 11:43:49;;;;;;;7.53;6.82;;;20.10;58.00;;;;;;4139438;28;20174;-59
2021/12/12 11:46:14;;;;;;;8.63;7.72;;;20.10;58.70;;;;;;4140320;28;20088;-59
2021/12/12 11:48:47;;;;;;;10.70;7.32;;;20.00;58.20;;;;;;4140345;28;20132;-59
2021/12/12 11:51:15;;;;;;;7.72;7.03;;;20.00;58.30;;;;;;4138673;28;20065;-58
2021/12/12 11:53:41;;;;;;;8.18;7.38;;;19.90;58.50;;;;;;4139711;28;20053;-59
2021/12/12 11:56:10;;;;;;;8.93;8.02;;;19.80;58.80;;;;;;4140168;28;20050;-59
2021/12/12 11:58:37;;;;;;;8.05;7.35;;;19.60;59.20;;;;;;4138510;28;21035;-59
2021/12/12 12:01:11;;;;;;;8.38;7.57;;;19.60;59.60;;;;;;4139797;28;20085;-59
2021/12/12 12:04:00;;;;;;;8.68;7.78;;;19.50;59.70;;;;;;4138672;28;20061;-59
2021/12/12 12:06:29;;;;;;;8.20;6.53;;;19.50;59.70;;;;;;4139937;28;20049;-59
2021/12/12 12:09:06;;;;;;;7.93;7.07;;;19.50;59.70;;;;;;4139423;28;20139;-60
2021/12/12 12:11:47;;;;;;;10.05;7.45;;;19.60;59.60;;;;;;4139216;28;20395;-58
2021/12/12 12:14:18;;;;;;;7.65;6.88;;;19.60;59.60;;;;;;4138816;28;20056;-59
2021/12/12 12:16:49;;;;;;;7.82;7.13;;;19.60;59.60;;;;;;4139131;28;20058;-58
2021/12/12 12:19:17;;;;;;;7.25;6.55;;;19.60;59.70;;;;;;4138491;28;20050;-60
2021/12/12 12:21:49;;;;;;;8.50;7.00;;;19.60;59.70;;;;;;4127377;28;20042;-59
2021/12/12 12:24:19;;;;;;;7.30;6.68;;;19.60;59.60;;;;;;4124714;28;20462;-60
2021/12/12 12:27:02;;;;;;;7.10;6.43;;;19.60;59.60;;;;;;4140410;28;20050;-59
2021/12/12 12:30:04;;;;;;;7.75;6.75;;;19.60;59.60;;;;;;4138769;28;20050;-59
2021/12/12 12:33:12;;;;;;;6.35;5.75;;;19.70;59.70;;;;;;4136827;28;20053;-60
2021/12/12 12:36:11;;;;;;;6.57;5.93;;;19.60;59.90;;;;;;4138880;28;20082;-60
2021/12/12 12:39:10;;;;;;;6.07;5.45;;;19.60;60.20;;;;;;4139093;28;20045;-59
2021/12/12 12:42:14;;;;;;;6.43;5.82;;;19.60;60.30;;;;;;4141348;28;20085;-59
2021/12/12 12:45:30;;;;;;;6.30;5.80;;;19.60;60.40;;;;;;4083417;28;20047;-60
2021/12/12 12:48:26;;;;;;;6.13;5.57;;;19.60;60.30;;;;;;4128687;28;20050;-60
2021/12/12 12:51:17;;;;;;;5.97;5.38;;;19.60;60.30;;;;;;4139505;28;20049;-60
2021/12/12 12:54:06;;;;;;;5.68;5.22;;;19.70;60.10;;;;;;4145016;28;20441;-59
2021/12/12 12:57:07;;;;;;;5.97;5.38;;;19.70;60.10;;;;;;4129423;28;20092;-59
2021/12/12 12:59:50;;;;;;;6.47;5.82;;;19.70;60.30;;;;;;4144357;28;20058;-59